Metar Cercanos

 

LEPA - Palma De Mallorc, Spain
Distance from station: ONO 38km
Actualización: 26/05/2018 05:30
Cubierto
Cubierto
 Viento del NNE
Viento: NNE 6 km/h
Temperatura: 20°C
Rocío: 18°C
Humedad: 88%
Barómetro: 1013 hPa
Clouds: Cubierto
Visibility: 9 km
Cloud details: Few Clouds 244 m
Cubierto 335 m
2018/05/26 03:30 LEPA 260330Z 02003KT 9000 FEW008 OVC011 20/18 Q1013 NOSIG
LEMH - Mahon/Menorca Is, Spain
Distance from station: ENE 105km
Actualización: 26/05/2018 05:30
Despejado
Despejado
 Viento del varies
Viento: varies 9 km/h
Temperatura: 18°C
Rocío: 16°C
Humedad: 88%
Barómetro: 1014 hPa
Resumen: Despejado
Visibility: greater than 10 km
2018/05/26 03:30 LEMH 260330Z AUTO VRB05KT CAVOK 18/16 Q1014
 
LEIB - Ibiza/Es Codola, Spain
Distance from station: OSO 165km
Actualización: 26/05/2018 05:30
Parcialmente nuboso
Parcialmente nuboso
 Viento del N
Viento: N 7 km/h
Temperatura: 17°C
Rocío: 15°C
Humedad: 88%
Barómetro: 1013 hPa
Clouds: Parcialmente nuboso
Visibility: 8 km
Cloud details: Parcialmente nuboso 152 m
Parcialmente nuboso 579 m
2018/05/26 03:30 LEIB 260330Z 01004KT 8000 SCT005 SCT019 17/15 Q1013 NOSIG
LEBL - Barcelona Airpor, Spain
Distance from station: NNO 225km
Actualización: 26/05/2018 05:30
Muy nuboso
Muy nuboso
 Viento del NE
Viento: NE 11 km/h
Temperatura: 19°C
Rocío: 17°C
Humedad: 88%
Barómetro: 1014 hPa
Clouds: Muy nuboso
Visibility: 10 km
Cloud details: Muy nuboso 335 m
2018/05/26 03:30 LEBL 260330Z 05006KT 9999 BKN011 19/17 Q1014 NOSIG
 
LEVC - Valencia (civ/Mi, Spain
Distance from station: NO 188km
Actualización: 01/01/1970 01:00
NOT Current
unable to load LEVC data RC=404 Not Found
unable to load LEVC data RC=404 Not Found
 
LEGE - Gerona/Costa Bra, Spain
Distance from station: N 276km
Actualización: 26/05/2018 05:30
Lluvia débil, Nearby thunderstorm, Parcialmente nuboso
Lluvia débil, Nearby thunderstorm, Parcialmente nuboso
 Viento del ONO
Viento: ONO 13 km/h
Temperatura: 15°C
Rocío: 15°C
Humedad: 100%
Barómetro: 1016 hPa
Resumen: Lluvia débil, Nearby thunderstorm
Clouds: Parcialmente nuboso
Visibility: 10 km
Cloud details: Few Clouds 610 m
Few Clouds 1829 m
Parcialmente nuboso 2286 m
2018/05/26 03:30 LEGE 260330Z 29007KT 9999 -RA VCTS FEW020 FEW060CB SCT075 15/15 Q1016
 
LEAL - Alicante/El Alte, Spain
Distance from station: OSO 344km
Actualización: 26/05/2018 05:30
Muy nuboso
Muy nuboso
 Viento del NE
Viento: NE 7 km/h
Temperatura: 18°C
Rocío: 17°C
Humedad: 94%
Barómetro: 1012 hPa
Clouds: Muy nuboso
Visibility: 10 km
Cloud details: Parcialmente nuboso 305 m
Muy nuboso 427 m
2018/05/26 03:30 LEAL 260330Z 05004KT 9999 SCT010 BKN014 18/17 Q1012 NOSIG
LEAM - Almeria Airport, Spain
Distance from station: SSO 56km
Actualización: 26/05/2018 05:30
Despejado
Despejado
 Viento del O
Viento: O 6 km/h
Temperatura: 17°C
Rocío: 14°C
Humedad: 83%
Barómetro: 1012 hPa
Resumen: Despejado
Visibility: greater than 10 km
2018/05/26 03:30 LEAM 260330Z 28003KT 240V360 CAVOK 17/14 Q1012
 
LEZG - Zaragoza (mil/Ci, Spain
Distance from station: NO 431km
Actualización: 26/05/2018 05:30
Muy nuboso
Muy nuboso
 Viento del E
Viento: E 9 km/h
Temperatura: 18°C
Rocío: 15°C
Humedad: 83%
Barómetro: 1012 hPa
Clouds: Muy nuboso
Visibility: 10 km
Cloud details: Few Clouds 488 m
Muy nuboso 671 m
2018/05/26 03:30 LEZG 260330Z 10005KT 060V120 9999 FEW016 BKN022 18/15 Q1012
LEMD - Madrid/Barajas, Spain
Distance from station: ONO 234km
Actualización: 26/05/2018 05:30
Light drizzle, Muy nuboso
Light drizzle, Muy nuboso
 Viento del N
Viento: N 7 km/h
Temperatura: 12°C
Rocío: 12°C
Humedad: 100%
Barómetro: 1013 hPa
Resumen: Light Drizzle
Clouds: Muy nuboso
Visibility: 10 km
Cloud details: Few Clouds 2042 m
Muy nuboso 2377 m
2018/05/26 03:30 LEMD 260330Z 01004KT 9999 -DZ FEW067 BKN078 12/12 Q1013 NOSIG
 
LEGR - Granada Airport, Spain
Distance from station: OSO 62km
Actualización: 26/05/2018 05:30
Despejado
Despejado
 Viento del SSE
Viento: SSE 2 km/h
Temperatura: 10°C
Rocío: 8°C
Humedad: 88%
Barómetro: 1014 hPa
Clouds: Despejado
Visibility: 10 km
2018/05/26 03:30 LEGR 260330Z AUTO 16001KT 9999 NCD 10/08 Q1014
LEMG - Malaga (civ/Mil), Spain
Distance from station: OSO 227km
Actualización: 26/05/2018 05:30
Few Clouds
Few Clouds
 Viento del ONO
Viento: ONO 11 km/h
Temperatura: 15°C
Rocío: 11°C
Humedad: 77%
Barómetro: 1012 hPa
Clouds: Few Clouds
Visibility: 10 km
Cloud details: Few Clouds 1524 m
2018/05/26 03:30 LEMG 260330Z 29006KT 9999 FEW050 15/11 Q1012 NOSIG
 
LEZL - Sevilla (civ/Mil, Spain
Distance from station: S 318km
Actualización: 26/05/2018 05:48
Muy nuboso
Muy nuboso
 Viento del S
Viento: S 6 km/h
Temperatura: 16°C
Rocío: 14°C
Humedad: 88%
Barómetro: 1013 hPa
Clouds: Muy nuboso
Visibility: 10 km
Cloud details: Muy nuboso 396 m
2018/05/26 03:48 LEZL 260348Z 18003KT 9999 BKN013 16/14 Q1013 NOSIG
LEVT - Vitoria, Spain
Distance from station: NO 226km
Actualización: 26/05/2018 05:30
Patches of fog, Muy nuboso
Patches of fog, Muy nuboso
 Viento del ENE
Viento: ENE 6 km/h
Temperatura: 12°C
Rocío: 12°C
Humedad: 100%
Barómetro: 1013 hPa
Resumen: Patches of Fog
Clouds: Muy nuboso
Visibility: 1 km
Cloud details: Muy nuboso 152 m
2018/05/26 03:30 LEVT 260330Z 07003KT 1200 R04/1500U R22/P2000 BCFG BKN005 12/12 Q1013
 
LEBB - Bilbao/Sondica, Spain
Distance from station: NNO 235km
Actualización: 26/05/2018 05:30
Muy nuboso
Muy nuboso
 Viento del calm
Viento: Calma
Temperatura: 17°C
Rocío: 16°C
Humedad: 94%
Barómetro: 1012 hPa
Clouds: Muy nuboso
Visibility: 8 km
Cloud details: Parcialmente nuboso 244 m
Muy nuboso 671 m
2018/05/26 03:30 LEBB 260330Z 00000KT 8000 SCT008 BKN022 17/16 Q1012 TEMPO 3000 RA BR BKN010
LESO - San Sebastian/Fu, Spain
Distance from station: N 231km
Actualización: 26/05/2018 05:30
Muy nuboso
Muy nuboso
 Viento del calm
Viento: Calma
Temperatura: 17°C
Rocío: 16°C
Humedad: 94%
Barómetro: 1012 hPa
Clouds: Muy nuboso
Visibility: 10 km
Cloud details: Muy nuboso 274 m
Muy nuboso 457 m
2018/05/26 03:30 LESO 260330Z 00000KT 9999 BKN009 BKN015 17/16 Q1012
 
LEVD - Valladolid(Mil/C, Spain
Distance from station: ONO 239km
Actualización: 25/05/2018 21:30
NOT Current
Few Clouds
Few Clouds
 Viento del ENE
Viento: ENE 9 km/h
Temperatura: 12°C
Rocío: 11°C
Humedad: 94%
Barómetro: 1014 hPa
Clouds: Few Clouds
Visibility: 10 km
Cloud details: Few Clouds 1128 m
2018/05/25 19:30 LEVD 251930Z 07005KT 9999 FEW037 12/11 Q1014
LESA - Salamanca (civ/M, Spain
Distance from station: ONO 349km
Actualización: 25/05/2018 20:30
NOT Current
Few Clouds
Few Clouds
 Viento del calm
Viento: Calma
Temperatura: 14°C
Rocío: 9°C
Humedad: 72%
Barómetro: 1013 hPa
Clouds: Few Clouds
Visibility: 10 km
Cloud details: Few Clouds 1463 m
2018/05/25 18:30 LESA 251830Z 00000KT 9999 FEW048 14/09 Q1013
 
LEXJ - Santander/Paraya, Spain
Distance from station: NNO 247km
Actualización: 26/05/2018 05:30
Mist, Muy nuboso
Mist, Muy nuboso
 Viento del varies
Viento: varies 4 km/h
Temperatura: 16°C
Rocío: 16°C
Humedad: 100%
Barómetro: 1012 hPa
Resumen: Mist
Clouds: Muy nuboso
Visibility: 3 km
Cloud details: Few Clouds 61 m
Parcialmente nuboso 152 m
Muy nuboso 335 m
2018/05/26 03:30 LEXJ 260330Z VRB02KT 3000 BR FEW002 SCT005 BKN011 16/16 Q1012
LEAS - Asturias/Aviles, Spain
Distance from station: NO 214km
Actualización: 26/05/2018 05:30

 Viento del ONO
Viento: ONO 7 km/h
Visibility: 2 km
2018/05/26 03:30 LEAS 260330Z AUTO 30004KT 260V330 2300 1000 -RA BR BKN003/// BKN007/// OVC015/// 14/14 Q1013
 
LECO - La Coruna/Alvedr, Spain
Distance from station: ONO 222km
Actualización: 26/05/2018 05:30
Light drizzle, Mist, Cubierto
Light drizzle, Mist, Cubierto
 Viento del N
Viento: N 11 km/h
Temperatura: 13°C
Rocío: 13°C
Humedad: 100%
Barómetro: 1014 hPa
Resumen: Light drizzle, Mist
Clouds: Cubierto
Visibility: 3 km
Cloud details: Muy nuboso 152 m
Cubierto 366 m
2018/05/26 03:30 LECO 260330Z 36006KT 320V040 3000 -DZ BR BKN005 OVC012 13/13 Q1014 TEMPO 1500 BCFG
LEVX - Vigo/Peinador, Spain
Distance from station: O 214km
Actualización: 26/05/2018 05:30
Parcialmente nuboso
Parcialmente nuboso
 Viento del N
Viento: N 7 km/h
Temperatura: 13°C
Rocío: 13°C
Humedad: 100%
Barómetro: 1012 hPa
Clouds: Parcialmente nuboso
Visibility: 7 km
Cloud details: Parcialmente nuboso 701 m
2018/05/26 03:30 LEVX 260330Z 36004KT 7000 SCT023 13/13 Q1012 NOSIG